This is the latest recevied weather packets stored in our database for station/object SQ5AAG-2. If no packets are shown the sender has not sent any weather packets the latest 10 day(s).
| Time | Temp. | Humidity | Pressure | Rain* | Wind** | Luminosity | Snow |
|---|---|---|---|---|---|---|---|
| 1787578526 | 18.33° C | 66% | 1005.7 hPa | 0 mm | - | - | - |
| 1787578291 | 18.33° C | 66% | 1005.8 hPa | 0 mm | - | - | - |
| 1787578225 | 18.33° C | 66% | 1005.8 hPa | 0 mm | - | - | - |
| 1787577957 | 18.33° C | 66% | 1005.8 hPa | 0 mm | - | - | - |
| 1787577925 | 18.33° C | 66% | 1005.8 hPa | 0 mm | - | - | - |
| 1787577692 | 18.33° C | 65% | 1005.8 hPa | 0 mm | - | - | - |
| 1787577624 | 18.33° C | 65% | 1005.8 hPa | 0 mm | - | - | - |
| 1787577325 | 18.33° C | 65% | 1005.8 hPa | 0 mm | - | - | - |
| 1787577062 | 18.33° C | 67% | 1005.8 hPa | 0 mm | - | - | - |
| 1787577024 | 18.33° C | 67% | 1005.8 hPa | 0 mm | - | - | - |
| 1787576791 | 17.78° C | 68% | 1005.6 hPa | 0 mm | - | - | - |
| 1787576723 | 17.78° C | 68% | 1005.6 hPa | 0 mm | - | - | - |
| 1787576530 | 17.78° C | 69% | 1005.7 hPa | 0 mm | - | - | - |
| 1787576423 | 17.78° C | 69% | 1005.7 hPa | 0 mm | - | - | - |
| 1787576124 | 17.78° C | 67% | 1005.7 hPa | 0 mm | - | - | - |
| 1787575823 | 18.33° C | 66% | 1005.7 hPa | 0 mm | - | - | - |
| 1787575557 | 18.89° C | 66% | 1005.8 hPa | 0 mm | - | - | - |
| 1787575522 | 18.89° C | 66% | 1005.8 hPa | 0 mm | - | - | - |
| 1787575255 | 19.44° C | 64% | 1005.8 hPa | 0 mm | - | - | - |
| 1787575222 | 19.44° C | 64% | 1005.8 hPa | 0 mm | - | - | - |
| 1787574954 | 19.44° C | 65% | 1005.8 hPa | 0 mm | - | - | - |
| 1787574922 | 19.44° C | 65% | 1005.8 hPa | 0 mm | - | - | - |
| 1787574657 | 19.44° C | 66% | 1005.9 hPa | 0 mm | - | - | - |
| 1787574621 | 19.44° C | 66% | 1005.9 hPa | 0 mm | - | - | - |
| 1787574321 | 18.89° C | 71% | 1005.8 hPa | 0 mm | - | - | - |
* Rain latest hour (hover to see other rain measurements)
** Current wind speed in m/s (hover to see current wind gust speed)